This is the latest recevied weather packets stored in our database for station/object KK7AZD-13. If no packets are shown the sender has not sent any weather packets the latest 10 day(s).
| Time | Temp. | Humidity | Pressure | Rain* | Wind** | Luminosity | Snow |
|---|---|---|---|---|---|---|---|
| 1777533326 | 8.33° C | 55% | 1020 hPa | 0 mm | - | 0 W/m² | - |
| 1777532422 | 8.33° C | 53% | 1019.8 hPa | 0 mm | - | 0 W/m² | - |
| 1777531521 | 9.44° C | 52% | 1019.7 hPa | 0 mm | - | 0 W/m² | - |
| 1777530620 | 8.89° C | 55% | 1019.8 hPa | 0 mm | - | 0 W/m² | - |
| 1777529716 | 8.33° C | 58% | 1019.7 hPa | 0 mm | - | 0 W/m² | - |
| 1777528817 | 8.33° C | 59% | 1019.5 hPa | 0 mm | - | 0 W/m² | - |
| 1777527915 | 10.56° C | 52% | 1019.5 hPa | 0 mm | - | 0 W/m² | - |
| 1777527013 | 11.11° C | 51% | 1019.3 hPa | 0 mm | - | 0 W/m² | - |
| 1777526111 | 8.33° C | 57% | 1019.5 hPa | 0 mm | - | 0 W/m² | - |
| 1777525208 | 7.22° C | 61% | 1019.3 hPa | 0 mm | - | 0 W/m² | - |
| 1777524305 | 9.44° C | 55% | 1019.2 hPa | 0 mm | - | 0 W/m² | - |
| 1777523405 | 10° C | 51% | 1019.1 hPa | 0 mm | - | 0 W/m² | - |
| 1777522500 | 9.44° C | 53% | 1019 hPa | 0 mm | - | 0 W/m² | - |
| 1777521597 | 10.56° C | 54% | 1018.9 hPa | 0 mm | - | 0 W/m² | - |
| 1777520694 | 12.78° C | 47% | 1018.4 hPa | 0 mm | - | 0 W/m² | - |
| 1777519790 | 13.89° C | 43% | 1018.2 hPa | 0 mm | - | 0 W/m² | - |
| 1777518886 | 14.44° C | 40% | 1018.1 hPa | 0 mm | - | 0 W/m² | - |
| 1777517987 | 15° C | 38% | 1017.9 hPa | 0 mm | - | 5 W/m² | - |
| 1777517085 | 15.56° C | 38% | 1017.9 hPa | 0 mm | - | 16 W/m² | - |
| 1777516185 | 16.11° C | 37% | 1017.5 hPa | 0 mm | - | 29 W/m² | - |
| 1777515282 | 18.33° C | 32% | 1017.8 hPa | 0 mm | - | 48 W/m² | - |
| 1777514378 | 17.22° C | 34% | 1017.6 hPa | 0 mm | - | 85 W/m² | - |
| 1777513474 | 17.78° C | 31% | 1017.6 hPa | 0 mm | - | 126 W/m² | - |
| 1777512570 | 17.78° C | 31% | 1017.5 hPa | 0 mm | - | 134 W/m² | - |
| 1777511666 | 17.22° C | 29% | 1017.5 hPa | 0 mm | - | 217 W/m² | - |
* Rain latest hour (hover to see other rain measurements)
** Current wind speed in m/s (hover to see current wind gust speed)